Pickford, MI (49774)

11:50 PM EST on February 24, 2017 (GMT -0500)
WhitehouseII pickford, mi | | Change Station
Active Advisory: Winter Weather Advisory

Elev 0 ft 46.16 °N, 84.38 °W | Updated 42 seconds ago

Overcast
Overcast
24.1 °F
Feels Like 14 °F
N
9.4
Wind Variable Wind from NE

Today
High -- | Low -- °F
--% Chance of Precip.
Yesterday
High -- | Low -- °F
Precip. -- in
Pressure 29.48 in
Visibility 3.0 miles
Clouds Overcast 800 ft
Windchill 14 °F
Dew Point 24 °F
Humidity 98%
Rainfall 0.14 in
Snow Depth Not available.
7:24 AM 6:17 PM
Waning Crescent, 2% visible
SPECI KCIU 250435Z AUTO 02013KT 3SM UP BR OVC008 M06/M06 A2948 RMK AO2 CIG 007V011 P0000 FZRANO
Pressure 29.48 in
Visibility 3.0 miles
Clouds Overcast 800 ft
Windchill 14 °F
Dew Point 24 °F
Humidity 98%
Rainfall 0.14 in
Snow Depth Not available.
7:24 AM 6:17 PM
Waning Crescent, 2% visible
SPECI KCIU 250435Z AUTO 02013KT 3SM UP BR OVC008 M06/M06 A2948 RMK AO2 CIG 007V011 P0000 FZRANO

Get Your Daily Forecast Email!

Thanks for signing up!

Be on the lookout for a verification email in your inbox.

You'll start receiving the daily forecast at 8 AM.

×

10-Day Weather Forecast

Almanac

Astronomy

Feb. 24, 2017 Rise Set
Actual Time
Civil Twilight
Nautical Twilight
Astronomical Twilight
Moon
Length of Visible Light
Length of Day
Tomorrow will be .
, % of the Moon is Illuminated

Today's Extremes

State Highs State Lows

Community

WunderPhotos

Upload Photos

1,962,540 photos uploaded!

WunderBlog® & News

Nearby

Air Quality

  Air Quality AQ Index Pollutant
Not available.

Snow Depth

Station Depth Elevation

Earthquake Activity

City Distance Mag. Time & Date
Minimum magnitude displayed is 2.5.

Coastal Water Temperatures

Place Temperature

Stations

Nearby Weather Stations

Station Location Temp. Windchill Dew Point Humidity Wind Precip. Elev Updated Type
                   

Watches & Warnings

Winter Weather Advisory
Issued: 10:13 PM EST Feb. 24, 2017 – National Weather Service

... Winter Weather Advisory remains in effect until 1 am EST
Saturday...

* periodic light freezing rain or freezing drizzle will impact the
area through midnight, and possibly through much of the
overnight hours as well.

* Ice accumulations of up to 1/10 of an inch are expected.

* Look for reduced visibilities at times.

* Travel will be hazardous.

Precautionary/preparedness actions...

A Winter Weather Advisory means that periods of snow... sleet or
freezing rain will cause travel difficulties. Be prepared for
slippery roads and limited visibilities... and use caution while
driving. For the latest Road conditions... go to the mdot website
at Michigan.Gov.